메인 페이지
METAR-TAF:

METAR-TAF

공항 :

Abraham Lincoln Capital Airport

스프링필드, 일리노이, 미국

위도: 39-50-43N, 경도: 089-41-02W, 고도: 182m

현재 날씨관측

예보는 39분 전, 03:52시(UTC)에 발표되었습니다.
무풍
온도 23°C
습도 89%
기압 1017 hPa
시정: 16.1km
맑음

METAR: KSPI 040352Z AUTO 00000KT 10SM CLR 23/21 A3002 RMK AO2 SLP160 T02280211

시각: 23:31 (04:31 UTC)

예보

예보는 5 시간 11분 전, 23:20시(UTC)에 발표되었습니다.
예보 대상 시간: 04일 00시부터 04일 24시까지 (UTC)
북동4kt
시정: 10km
고도 10000ft 상공 구름 조금
고도 25000ft 상공 구름 보통

TAF: KSPI 032320Z 0400/0424 05004KT P6SM FEW100 SCT250

4,000개 이상의 공항 관측 자료 및 예보 (METAR 및 TAF 보고).

지도상에서 검색 가능한 기상관측소가 노란 점과 빨간 점으로 표시되어 있습니다.

기상관측소 명을 보려면 표시 위로 마우스를 이동하세요.

날씨 관측과 예보를 보려면 클릭하세요.

지도 변경 : 확대하려면 엑스 표시가 있는 녹색 버튼, 축소하려면 빼기 표시가 있는 녹색 버튼, 다음 페이지의 지도를 보려면 녹색 화살표를 클릭하세요.


METAR-TAF: